Time;durP1;ratioP1;P1;durP2;ratioP2;P2;SDS_P1;SDS_P2;PMS_P1;PMS_P2;Temp;Humidity;BMP_temperature;BMP_pressure;BME280_temperature;BME280_humidity;BME280_pressure;Samples;Min_cycle;Max_cycle;Signal;HPM_P1;HPM_P2
2022/03/04 00:01:20;;;;;;;11.20;4.90;;;1.50;99.90;;;;;;5059351;27;20571;-75
2022/03/04 00:03:45;;;;;;;7.57;4.40;;;1.50;99.90;;;;;;5053287;27;21264;-75
2022/03/04 00:06:12;;;;;;;2.53;2.20;;;1.40;99.90;;;;;;5055457;27;20039;-75
2022/03/04 00:08:38;;;;;;;6.68;4.30;;;1.40;99.90;;;;;;5041204;27;20036;-76
2022/03/04 00:11:03;;;;;;;8.63;4.35;;;1.40;99.90;;;;;;5045991;27;20406;-75
2022/03/04 00:13:38;;;;;;;9.93;5.50;;;1.40;99.90;;;;;;5067986;27;20046;-75
2022/03/04 00:16:04;;;;;;;15.10;5.97;;;1.40;99.90;;;;;;5051360;27;20043;-75
2022/03/04 00:18:32;;;;;;;3.92;1.98;;;1.40;99.90;;;;;;5060703;27;20043;-76
2022/03/04 00:21:02;;;;;;;5.57;4.18;;;1.30;99.90;;;;;;5053064;27;20540;-75
2022/03/04 00:23:28;;;;;;;9.60;5.05;;;1.30;99.90;;;;;;5045389;28;20075;-76
2022/03/04 00:25:56;;;;;;;8.50;3.65;;;1.30;99.90;;;;;;5035652;28;20053;-75
2022/03/04 00:28:34;;;;;;;3.70;2.95;;;1.30;99.90;;;;;;5053816;28;20068;-75
2022/03/04 00:31:03;;;;;;;8.43;4.40;;;1.30;99.90;;;;;;5037316;28;20428;-76
2022/03/04 00:33:29;;;;;;;7.65;4.28;;;1.30;99.90;;;;;;5043622;28;20054;-75
2022/03/04 00:35:55;;;;;;;9.15;5.25;;;1.30;99.90;;;;;;5034883;28;20040;-76
2022/03/04 00:38:21;;;;;;;10.57;5.13;;;1.20;99.90;;;;;;5057959;28;20693;-75
2022/03/04 00:40:48;;;;;;;5.78;3.15;;;1.20;99.90;;;;;;5026774;28;20293;-76
2022/03/04 00:43:14;;;;;;;11.85;5.28;;;1.20;99.90;;;;;;5069672;28;20047;-76
2022/03/04 00:45:39;;;;;;;14.25;6.57;;;1.20;99.90;;;;;;5051544;28;20048;-75
2022/03/04 00:48:08;;;;;;;7.93;4.85;;;1.20;99.90;;;;;;5045509;28;20444;-75
2022/03/04 00:50:40;;;;;;;10.65;5.30;;;1.30;99.90;;;;;;5031948;28;20368;-75
2022/03/04 00:53:06;;;;;;;9.57;3.15;;;1.20;99.90;;;;;;5035604;28;20146;-75
2022/03/04 00:55:36;;;;;;;13.40;5.55;;;1.20;99.90;;;;;;5046821;28;20750;-75
2022/03/04 00:58:08;;;;;;;4.97;3.75;;;1.20;99.90;;;;;;5058627;28;20048;-75
2022/03/04 01:00:35;;;;;;;12.18;5.35;;;1.20;99.90;;;;;;5061522;28;20070;-75
2022/03/04 01:03:03;;;;;;;16.55;5.95;;;1.10;99.90;;;;;;5051330;28;20050;-76
2022/03/04 01:05:32;;;;;;;8.90;4.35;;;1.10;99.90;;;;;;5058296;28;20122;-76
2022/03/04 01:08:23;;;;;;;3.85;2.60;;;1.00;99.90;;;;;;5073754;27;20673;-76
2022/03/04 01:10:55;;;;;;;8.65;4.25;;;1.00;99.90;;;;;;5076018;28;20127;-75
2022/03/04 01:13:30;;;;;;;7.55;4.60;;;0.90;99.90;;;;;;5063400;28;20040;-75
2022/03/04 01:15:56;;;;;;;1.50;1.40;;;0.90;99.90;;;;;;5059131;28;20162;-76
2022/03/04 01:18:25;;;;;;;4.25;3.33;;;0.80;99.90;;;;;;5063555;28;20041;-75
2022/03/04 01:21:07;;;;;;;6.30;1.83;;;0.70;99.90;;;;;;5046163;28;20028;-76
2022/03/04 01:23:34;;;;;;;9.15;4.47;;;0.60;99.90;;;;;;5022881;28;20516;-75
2022/03/04 01:28:59;;;;;;;7.43;4.38;;;0.50;99.90;;;;;;5044815;28;20199;-75
2022/03/04 01:31:26;;;;;;;10.82;4.68;;;0.50;99.90;;;;;;5036677;28;20175;-76
2022/03/04 01:34:12;;;;;;;5.25;3.22;;;0.40;99.90;;;;;;5049382;28;20100;-75
2022/03/04 01:36:41;;;;;;;10.48;4.30;;;0.40;99.90;;;;;;5050955;28;20605;-76
2022/03/04 01:39:10;;;;;;;1.92;1.83;;;0.30;99.90;;;;;;5036268;28;20544;-75
2022/03/04 01:41:35;;;;;;;2.97;2.70;;;0.30;99.90;;;;;;5040063;28;20132;-76
2022/03/04 01:44:01;;;;;;;7.40;5.45;;;0.20;99.90;;;;;;5036534;28;20055;-75
2022/03/04 01:46:30;;;;;;;7.85;5.70;;;0.20;99.90;;;;;;5029692;28;20082;-76
2022/03/04 01:48:57;;;;;;;9.18;4.85;;;0.20;99.90;;;;;;5051267;28;20040;-76
2022/03/04 01:51:37;;;;;;;10.80;5.00;;;0.20;99.90;;;;;;5039795;28;20138;-76
2022/03/04 01:54:03;;;;;;;0.82;0.82;;;0.20;99.90;;;;;;5051616;28;20094;-76
2022/03/04 01:56:29;;;;;;;3.35;2.72;;;0.10;99.90;;;;;;5053583;28;20126;-76
2022/03/04 01:59:09;;;;;;;6.72;3.60;;;0.10;99.90;;;;;;5034857;28;20036;-75
2022/03/04 02:01:35;;;;;;;10.77;4.55;;;0.10;99.90;;;;;;5036155;28;20040;-76
2022/03/04 02:04:07;;;;;;;6.63;3.65;;;0.00;99.90;;;;;;5057487;28;20047;-76
2022/03/04 02:06:33;;;;;;;10.10;5.35;;;0.00;99.90;;;;;;5038256;28;20036;-76
2022/03/04 02:08:59;;;;;;;12.15;5.30;;;0.10;99.90;;;;;;5075372;28;20050;-76
2022/03/04 02:11:27;;;;;;;8.52;5.15;;;0.00;99.90;;;;;;5049022;28;20043;-76
2022/03/04 02:13:56;;;;;;;6.25;3.67;;;0.00;99.90;;;;;;5037515;28;20089;-76
2022/03/04 02:16:48;;;;;;;4.97;3.42;;;0.00;99.90;;;;;;5090551;28;20050;-76
2022/03/04 02:19:26;;;;;;;18.77;8.00;;;0.00;99.90;;;;;;5047070;28;20047;-76
2022/03/04 02:22:02;;;;;;;13.73;6.88;;;0.00;99.90;;;;;;5047376;27;20051;-76
2022/03/04 02:24:31;;;;;;;12.00;5.00;;;0.00;99.90;;;;;;5062939;27;20039;-75
2022/03/04 02:27:01;;;;;;;3.47;3.10;;;0.00;99.90;;;;;;5066596;27;20471;-76
2022/03/04 02:29:44;;;;;;;16.38;5.32;;;0.00;99.90;;;;;;5063306;27;20031;-76
2022/03/04 02:32:22;;;;;;;19.83;7.32;;;0.00;99.90;;;;;;5066621;27;20054;-76
2022/03/04 02:34:48;;;;;;;14.18;7.18;;;0.00;99.90;;;;;;5062379;27;20335;-76
2022/03/04 02:37:34;;;;;;;10.85;5.85;;;0.00;99.90;;;;;;5071559;27;20332;-76
2022/03/04 02:40:04;;;;;;;15.85;7.70;;;0.10;99.90;;;;;;5072292;27;20139;-76
2022/03/04 02:42:32;;;;;;;10.15;5.63;;;0.10;99.90;;;;;;5047611;27;20100;-76
2022/03/04 02:45:01;;;;;;;10.90;7.47;;;0.10;99.90;;;;;;5054894;27;20043;-75
2022/03/04 02:47:27;;;;;;;9.85;5.25;;;0.10;99.90;;;;;;5058459;27;20573;-76
2022/03/04 02:49:53;;;;;;;12.40;5.80;;;0.10;99.90;;;;;;5061197;27;20077;-77
2022/03/04 02:52:18;;;;;;;9.63;6.03;;;0.10;99.90;;;;;;5073145;27;20055;-78
2022/03/04 02:54:44;;;;;;;9.38;5.75;;;0.10;99.90;;;;;;5073213;27;21241;-77
2022/03/04 02:57:13;;;;;;;12.27;6.50;;;0.10;99.90;;;;;;5058115;27;20642;-77
2022/03/04 02:59:39;;;;;;;10.80;5.68;;;0.10;99.90;;;;;;5073463;27;20043;-77
2022/03/04 03:02:13;;;;;;;17.15;6.75;;;0.10;99.90;;;;;;5077697;27;20047;-77
2022/03/04 03:04:39;;;;;;;7.75;4.90;;;0.00;99.90;;;;;;5072167;27;20391;-78
2022/03/04 03:07:04;;;;;;;4.93;2.75;;;0.00;99.90;;;;;;5073821;27;20028;-78
2022/03/04 03:09:30;;;;;;;8.60;4.85;;;-0.10;99.90;;;;;;5054850;27;20648;-77
2022/03/04 03:11:56;;;;;;;14.93;7.10;;;-0.10;99.90;;;;;;5071456;27;20046;-77
2022/03/04 03:14:43;;;;;;;8.70;5.03;;;-0.20;99.90;;;;;;5054607;27;20043;-77
2022/03/04 03:17:19;;;;;;;11.43;5.93;;;-0.20;99.90;;;;;;5076936;27;20880;-77
2022/03/04 03:19:58;;;;;;;12.02;6.05;;;-0.30;99.90;;;;;;5061929;27;20134;-77
2022/03/04 03:22:56;;;;;;;6.15;4.45;;;-0.20;99.90;;;;;;5049768;28;21030;-78
2022/03/04 03:28:31;;;;;;;12.57;6.13;;;-0.20;99.90;;;;;;5067480;28;20537;-77
2022/03/04 03:30:57;;;;;;;10.05;5.97;;;-0.30;99.90;;;;;;5040476;28;20035;-77
2022/03/04 03:33:23;;;;;;;6.55;5.35;;;-0.30;99.90;;;;;;5032217;28;20173;-78
2022/03/04 03:35:49;;;;;;;16.08;7.70;;;-0.40;99.90;;;;;;5054245;27;20134;-78
2022/03/04 03:38:15;;;;;;;14.27;5.35;;;-0.40;99.90;;;;;;5024582;28;20036;-77
2022/03/04 03:41:03;;;;;;;3.28;2.88;;;-0.40;99.90;;;;;;5061407;28;20043;-77
2022/03/04 03:43:28;;;;;;;12.27;5.13;;;-0.40;99.90;;;;;;5022396;28;20047;-77
2022/03/04 03:45:54;;;;;;;7.75;5.47;;;-0.50;99.90;;;;;;5029126;28;20811;-77
2022/03/04 03:48:20;;;;;;;6.30;3.85;;;-0.50;99.90;;;;;;5041328;27;21248;-78
2022/03/04 03:50:46;;;;;;;8.68;6.18;;;-0.60;99.90;;;;;;5024899;28;21637;-77
2022/03/04 03:53:11;;;;;;;12.52;4.68;;;-0.60;99.90;;;;;;5053707;27;20040;-77
2022/03/04 03:55:40;;;;;;;4.32;2.78;;;-0.60;99.90;;;;;;5052247;28;20561;-76
2022/03/04 03:58:06;;;;;;;8.75;5.95;;;-0.70;99.90;;;;;;5060914;28;20090;-75
2022/03/04 04:00:59;;;;;;;6.60;5.10;;;-0.70;99.90;;;;;;5061156;27;20134;-76
2022/03/04 04:06:26;;;;;;;9.18;5.90;;;-0.60;99.90;;;;;;5073131;28;20391;-76
2022/03/04 04:09:02;;;;;;;7.60;4.68;;;-0.60;99.90;;;;;;5044551;28;20407;-76
2022/03/04 04:11:29;;;;;;;6.25;4.88;;;-0.60;99.90;;;;;;5076427;28;20043;-76
2022/03/04 04:13:55;;;;;;;8.93;5.32;;;-0.70;99.90;;;;;;5075379;28;20541;-76
2022/03/04 04:16:20;;;;;;;7.47;5.10;;;-0.70;99.90;;;;;;5051327;28;20233;-76
2022/03/04 04:18:47;;;;;;;12.85;6.63;;;-0.70;99.90;;;;;;5043429;27;20100;-75
2022/03/04 04:21:12;;;;;;;7.72;5.20;;;-0.80;99.90;;;;;;5039415;28;20078;-76
2022/03/04 04:23:38;;;;;;;13.50;7.10;;;-0.80;99.90;;;;;;5077473;27;20055;-76
2022/03/04 04:26:06;;;;;;;15.68;7.80;;;-0.80;99.90;;;;;;5092890;27;20063;-76
2022/03/04 04:28:33;;;;;;;13.18;7.57;;;-0.80;99.90;;;;;;5092515;27;20035;-76
2022/03/04 04:30:59;;;;;;;13.32;6.25;;;-0.80;99.90;;;;;;5084262;27;20163;-76
2022/03/04 04:33:25;;;;;;;23.60;9.35;;;-0.80;99.90;;;;;;5086750;27;20486;-76
2022/03/04 04:36:11;;;;;;;11.57;6.53;;;-0.80;99.90;;;;;;5078583;27;20039;-75
2022/03/04 04:38:38;;;;;;;13.25;7.60;;;-0.80;99.90;;;;;;5073318;27;20038;-75
2022/03/04 04:41:09;;;;;;;8.23;5.35;;;-0.80;99.90;;;;;;5088562;27;20042;-75
2022/03/04 04:43:55;;;;;;;15.30;7.53;;;-0.80;99.90;;;;;;5085899;27;21009;-76
2022/03/04 04:46:35;;;;;;;15.60;9.57;;;-0.90;99.90;;;;;;5056666;27;20035;-76
2022/03/04 04:49:06;;;;;;;14.00;6.03;;;-0.80;99.90;;;;;;5076211;27;20107;-76
2022/03/04 04:51:32;;;;;;;12.95;6.47;;;-0.80;99.90;;;;;;5062549;27;20153;-76
2022/03/04 04:53:58;;;;;;;8.98;5.75;;;-0.80;99.90;;;;;;5057643;28;20080;-76
2022/03/04 04:56:26;;;;;;;3.22;2.63;;;-0.80;99.90;;;;;;5053185;27;20578;-76
2022/03/04 04:58:52;;;;;;;11.52;5.40;;;-0.80;99.90;;;;;;5088698;27;20039;-76
2022/03/04 05:01:21;;;;;;;24.60;11.48;;;-0.80;99.90;;;;;;5078984;27;20055;-76
2022/03/04 05:03:50;;;;;;;17.98;9.68;;;-0.80;99.90;;;;;;5086473;27;20765;-75
2022/03/04 05:06:29;;;;;;;15.18;7.63;;;-0.80;99.90;;;;;;5063517;27;20043;-76
2022/03/04 05:08:54;;;;;;;12.35;6.75;;;-0.80;99.90;;;;;;5057201;27;20039;-77
2022/03/04 05:14:14;;;;;;;16.77;8.25;;;-1.00;99.90;;;;;;5078727;27;20046;-76
2022/03/04 05:16:43;;;;;;;18.00;8.00;;;-1.00;99.90;;;;;;5079482;27;20350;-76
2022/03/04 05:19:09;;;;;;;10.48;5.68;;;-1.00;99.90;;;;;;5079420;28;20125;-76
2022/03/04 05:21:35;;;;;;;15.38;8.57;;;-0.90;99.90;;;;;;5099826;27;20101;-76
2022/03/04 05:24:00;;;;;;;16.33;8.40;;;-0.90;99.90;;;;;;5083948;27;20602;-76
2022/03/04 05:26:46;;;;;;;23.88;11.05;;;-0.90;99.90;;;;;;5085221;28;20031;-76
2022/03/04 05:29:12;;;;;;;13.27;8.27;;;-0.90;99.90;;;;;;5097264;28;20056;-76
2022/03/04 05:31:40;;;;;;;10.60;5.75;;;-0.90;99.90;;;;;;5085742;28;20043;-76
2022/03/04 05:34:06;;;;;;;11.60;7.50;;;-0.90;99.90;;;;;;5107577;27;20517;-76
2022/03/04 05:36:33;;;;;;;16.23;8.35;;;-0.90;99.90;;;;;;5091055;28;20498;-77
2022/03/04 05:38:58;;;;;;;13.27;6.90;;;-0.90;99.90;;;;;;5091918;28;20046;-76
2022/03/04 05:41:24;;;;;;;20.30;7.50;;;-0.90;99.90;;;;;;5089148;28;20039;-76
2022/03/04 05:43:53;;;;;;;21.27;11.13;;;-0.90;99.90;;;;;;5063213;28;20045;-76
2022/03/04 05:46:19;;;;;;;17.02;8.63;;;-0.70;99.90;;;;;;5080586;28;20092;-76
2022/03/04 05:48:59;;;;;;;12.90;7.15;;;-0.80;99.90;;;;;;5067466;28;20035;-76
2022/03/04 05:51:30;;;;;;;20.33;10.60;;;-0.80;99.90;;;;;;5097702;28;20469;-76
2022/03/04 05:54:01;;;;;;;14.80;7.22;;;-0.70;99.90;;;;;;5095456;28;20570;-76
2022/03/04 05:56:28;;;;;;;23.30;10.63;;;-0.70;99.90;;;;;;5068621;28;20189;-76
2022/03/04 05:58:54;;;;;;;17.73;7.20;;;-0.70;99.90;;;;;;5061694;28;20043;-76
2022/03/04 06:01:19;;;;;;;19.20;10.13;;;-0.60;99.90;;;;;;5083774;28;20217;-75
2022/03/04 06:03:48;;;;;;;19.20;8.18;;;-0.60;99.90;;;;;;5070718;28;20054;-76
2022/03/04 06:06:20;;;;;;;22.27;9.52;;;-0.70;99.90;;;;;;5057839;28;20043;-76
2022/03/04 06:08:54;;;;;;;33.40;11.25;;;-0.70;99.90;;;;;;5077903;28;20093;-76
2022/03/04 06:11:20;;;;;;;22.85;10.88;;;-0.70;99.90;;;;;;5075736;28;20743;-76
2022/03/04 06:13:46;;;;;;;17.70;9.15;;;-0.60;99.90;;;;;;5093085;28;20138;-76
2022/03/04 06:16:12;;;;;;;26.83;11.23;;;-0.60;99.90;;;;;;5082305;28;20035;-76
2022/03/04 06:18:38;;;;;;;23.92;10.82;;;-0.60;99.90;;;;;;5087154;28;20356;-76
2022/03/04 06:21:04;;;;;;;14.48;7.03;;;-0.60;99.90;;;;;;5099560;28;20040;-76
2022/03/04 06:23:30;;;;;;;19.48;8.27;;;-0.70;99.90;;;;;;5088524;28;20056;-76
2022/03/04 06:25:57;;;;;;;8.02;5.55;;;-0.70;99.90;;;;;;5098776;28;20528;-77
2022/03/04 06:28:24;;;;;;;5.82;4.60;;;-0.70;99.90;;;;;;5125504;28;20031;-76
2022/03/04 06:30:50;;;;;;;19.50;10.10;;;-0.70;99.90;;;;;;5116114;28;20039;-76
2022/03/04 06:33:30;;;;;;;20.25;9.20;;;-0.70;99.90;;;;;;5108748;28;20840;-77
2022/03/04 06:36:00;;;;;;;20.08;11.02;;;-0.60;99.90;;;;;;5091860;28;20151;-76
2022/03/04 06:38:26;;;;;;;16.60;9.07;;;-0.70;99.90;;;;;;5107809;28;20039;-76
2022/03/04 06:40:52;;;;;;;13.07;6.78;;;-0.60;99.90;;;;;;5109037;28;20058;-76
2022/03/04 06:43:19;;;;;;;13.73;7.57;;;-0.60;99.90;;;;;;5090148;28;20047;-77
2022/03/04 06:45:46;;;;;;;25.52;11.80;;;-0.60;99.90;;;;;;5108143;27;20031;-76
2022/03/04 06:48:14;;;;;;;24.77;11.18;;;-0.60;99.90;;;;;;5111191;27;20042;-76
2022/03/04 06:50:40;;;;;;;16.90;9.27;;;-0.60;99.90;;;;;;5111334;27;20031;-76
2022/03/04 06:53:05;;;;;;;17.05;9.85;;;-0.60;99.90;;;;;;5110471;27;20061;-76
2022/03/04 06:55:32;;;;;;;19.27;9.90;;;-0.50;99.90;;;;;;5111971;27;20402;-76
2022/03/04 06:57:57;;;;;;;16.63;8.32;;;-0.50;99.90;;;;;;5123401;27;20154;-76
2022/03/04 07:00:27;;;;;;;19.17;8.77;;;-0.60;99.90;;;;;;5128823;27;20507;-76
2022/03/04 07:02:53;;;;;;;19.67;9.95;;;-0.50;99.90;;;;;;5083863;27;20071;-77
2022/03/04 07:05:22;;;;;;;3.03;2.78;;;-0.60;99.90;;;;;;5093489;27;20038;-76
2022/03/04 07:07:52;;;;;;;3.78;2.63;;;-0.60;99.90;;;;;;5099069;27;20039;-76
2022/03/04 07:10:19;;;;;;;7.20;4.03;;;-0.50;99.90;;;;;;5111128;27;20038;-76
2022/03/04 07:12:45;;;;;;;16.23;9.27;;;-0.50;99.90;;;;;;5110022;27;20050;-76
2022/03/04 07:15:11;;;;;;;21.42;9.85;;;-0.40;99.90;;;;;;5127685;27;20075;-76
2022/03/04 07:17:37;;;;;;;28.02;11.18;;;-0.40;99.90;;;;;;5113601;27;20127;-76
2022/03/04 07:20:04;;;;;;;18.38;7.85;;;-0.40;99.90;;;;;;5122827;27;20462;-77
2022/03/04 07:22:29;;;;;;;21.48;7.95;;;-0.30;99.90;;;;;;5110719;27;20534;-77
2022/03/04 07:24:55;;;;;;;7.50;4.90;;;-0.30;99.90;;;;;;5094403;27;20047;-76
2022/03/04 07:27:21;;;;;;;16.00;8.23;;;-0.30;99.90;;;;;;5110985;27;20047;-76
2022/03/04 07:29:46;;;;;;;27.63;10.73;;;-0.30;99.90;;;;;;5093196;27;20514;-76
2022/03/04 07:32:12;;;;;;;11.95;6.70;;;-0.20;99.90;;;;;;5098085;27;20455;-76
2022/03/04 07:34:38;;;;;;;18.13;10.27;;;-0.20;99.90;;;;;;5091062;27;20043;-76
2022/03/04 07:37:05;;;;;;;18.42;9.00;;;-0.20;99.90;;;;;;5023923;22;20484;-76
2022/03/04 07:39:36;;;;;;;13.95;6.85;;;-0.20;99.90;;;;;;4998781;28;20060;-76
2022/03/04 07:42:04;;;;;;;5.53;3.75;;;-0.20;99.90;;;;;;5011845;28;20036;-77
2022/03/04 07:44:29;;;;;;;10.38;4.68;;;-0.20;99.90;;;;;;5025886;28;20083;-76
2022/03/04 07:46:55;;;;;;;6.22;4.68;;;-0.20;99.90;;;;;;5009872;28;20151;-76
2022/03/04 07:49:27;;;;;;;7.47;5.13;;;-0.20;99.90;;;;;;5020499;28;20044;-76
2022/03/04 07:51:53;;;;;;;12.48;6.35;;;-0.20;99.90;;;;;;5024014;28;20047;-77
2022/03/04 07:54:19;;;;;;;7.07;4.38;;;-0.20;99.90;;;;;;5021695;28;20698;-76
2022/03/04 07:56:45;;;;;;;25.20;9.88;;;-0.20;99.90;;;;;;5004490;28;20247;-75
2022/03/04 07:59:10;;;;;;;20.45;10.07;;;-0.10;99.90;;;;;;5009229;28;20156;-76
2022/03/04 08:01:36;;;;;;;11.35;6.95;;;-0.10;99.90;;;;;;5022630;28;20037;-76
2022/03/04 08:04:02;;;;;;;19.05;9.40;;;-0.10;99.90;;;;;;5026171;28;20544;-75
2022/03/04 08:06:28;;;;;;;14.05;6.70;;;-0.10;99.90;;;;;;5019719;28;20068;-76
2022/03/04 08:08:53;;;;;;;12.68;6.35;;;-0.10;99.90;;;;;;5029167;28;20041;-76
2022/03/04 08:11:19;;;;;;;6.57;5.13;;;0.00;99.90;;;;;;5029269;28;20475;-76
2022/03/04 08:13:45;;;;;;;4.60;3.92;;;0.00;99.90;;;;;;5012668;28;20485;-76
2022/03/04 08:16:13;;;;;;;10.10;5.00;;;0.10;99.90;;;;;;5007376;28;20692;-76
2022/03/04 08:18:55;;;;;;;19.13;9.52;;;0.10;99.90;;;;;;5020073;28;20037;-76
2022/03/04 08:21:40;;;;;;;19.70;9.25;;;0.20;99.90;;;;;;5001818;28;20042;-75
2022/03/04 08:24:06;;;;;;;13.05;7.25;;;0.20;99.90;;;;;;5007535;28;20050;-76
2022/03/04 08:26:32;;;;;;;15.30;8.43;;;0.20;99.90;;;;;;5020723;28;20410;-76
2022/03/04 08:29:01;;;;;;;6.38;4.93;;;0.20;99.90;;;;;;5023973;28;20069;-76
2022/03/04 08:31:29;;;;;;;10.80;5.95;;;0.10;99.90;;;;;;5036947;28;20055;-76
2022/03/04 08:34:01;;;;;;;18.85;8.60;;;0.10;99.90;;;;;;5027673;28;20041;-76
2022/03/04 08:36:27;;;;;;;12.82;7.75;;;0.20;99.90;;;;;;5019237;28;20495;-76
2022/03/04 08:38:52;;;;;;;20.00;8.57;;;0.20;99.90;;;;;;5023755;28;20268;-75
2022/03/04 08:41:19;;;;;;;10.95;5.22;;;0.30;99.90;;;;;;5024835;28;20068;-76
2022/03/04 08:43:46;;;;;;;12.48;8.25;;;0.30;99.90;;;;;;5005456;28;20045;-75
2022/03/04 08:46:14;;;;;;;6.63;4.70;;;0.40;99.90;;;;;;5025155;28;20049;-75
2022/03/04 08:48:53;;;;;;;13.40;4.65;;;0.40;99.90;;;;;;5024279;28;20045;-76
2022/03/04 08:51:24;;;;;;;7.73;3.90;;;0.50;99.90;;;;;;5023718;28;20405;-75
2022/03/04 08:54:08;;;;;;;13.93;6.72;;;0.60;99.90;;;;;;5024941;28;20088;-75
2022/03/04 08:56:34;;;;;;;8.77;6.35;;;0.90;99.90;;;;;;5037273;28;20034;-75
2022/03/04 08:59:01;;;;;;;14.75;7.68;;;0.90;99.90;;;;;;5012077;28;20041;-75
2022/03/04 09:01:27;;;;;;;8.20;4.70;;;0.90;99.90;;;;;;5010044;28;20095;-75
2022/03/04 09:03:53;;;;;;;1.50;1.40;;;1.00;99.90;;;;;;5028009;28;20220;-75
2022/03/04 09:06:18;;;;;;;7.70;5.40;;;0.90;99.90;;;;;;5005260;28;20529;-75
2022/03/04 09:08:48;;;;;;;14.38;6.63;;;1.00;99.90;;;;;;4995310;28;20042;-75
2022/03/04 09:11:13;;;;;;;11.77;4.53;;;1.20;99.90;;;;;;5027285;28;20125;-75
2022/03/04 09:13:39;;;;;;;14.40;6.05;;;1.60;99.90;;;;;;5010651;28;20040;-76
2022/03/04 09:16:05;;;;;;;6.72;4.32;;;1.80;99.90;;;;;;5018540;28;20512;-76
2022/03/04 09:18:31;;;;;;;16.42;7.32;;;2.00;99.90;;;;;;5013992;28;20041;-76
2022/03/04 09:20:57;;;;;;;17.83;7.53;;;2.20;99.90;;;;;;5008875;28;20033;-76
2022/03/04 09:23:23;;;;;;;18.02;8.25;;;2.20;99.90;;;;;;5040356;28;20486;-76
2022/03/04 09:25:49;;;;;;;9.27;6.70;;;2.10;99.90;;;;;;5015070;28;20501;-76
2022/03/04 09:28:15;;;;;;;12.25;7.55;;;1.90;99.90;;;;;;5016113;28;20037;-76
2022/03/04 09:31:03;;;;;;;16.27;8.30;;;1.90;99.90;;;;;;5032261;28;20043;-76
2022/03/04 09:33:32;;;;;;;13.02;6.70;;;2.60;99.90;;;;;;5009339;28;20041;-76
2022/03/04 09:36:00;;;;;;;16.48;8.75;;;3.10;99.90;;;;;;4997673;28;20444;-76
2022/03/04 09:38:27;;;;;;;11.82;6.97;;;3.10;99.90;;;;;;5012527;28;20184;-76
2022/03/04 09:40:56;;;;;;;14.38;7.65;;;3.00;99.90;;;;;;5016985;28;20045;-76
2022/03/04 09:43:22;;;;;;;13.65;7.93;;;2.90;99.90;;;;;;5013567;28;20037;-76
2022/03/04 09:45:49;;;;;;;18.23;6.53;;;3.00;99.90;;;;;;5012697;28;20045;-76
2022/03/04 09:48:18;;;;;;;20.52;10.68;;;3.40;99.90;;;;;;4999889;28;20044;-76
2022/03/04 09:50:46;;;;;;;6.47;4.95;;;3.90;99.90;;;;;;5015838;28;20043;-76
2022/03/04 09:53:13;;;;;;;8.90;5.05;;;4.00;99.90;;;;;;5024877;28;20079;-76
2022/03/04 09:55:40;;;;;;;13.35;7.18;;;4.20;99.90;;;;;;5024403;28;20052;-76
2022/03/04 09:58:13;;;;;;;1.23;1.08;;;4.50;99.90;;;;;;5025864;28;20448;-76
2022/03/04 10:00:40;;;;;;;7.65;4.68;;;4.60;99.90;;;;;;5024528;28;20462;-75
2022/03/04 10:03:10;;;;;;;12.63;7.45;;;5.00;99.90;;;;;;5003828;28;20080;-76
2022/03/04 10:05:53;;;;;;;9.65;6.07;;;5.30;99.90;;;;;;5027516;28;20088;-76
2022/03/04 10:08:19;;;;;;;;;;;5.50;99.90;;;;;;4995049;28;20099;-76
2022/03/04 10:10:50;;;;;;;15.90;7.05;;;5.50;99.90;;;;;;5019691;28;20332;-76
2022/03/04 10:13:15;;;;;;;11.77;6.53;;;5.50;99.90;;;;;;5037502;28;20256;-76
2022/03/04 10:15:53;;;;;;;5.03;3.90;;;5.50;99.90;;;;;;4996645;28;20099;-76
2022/03/04 10:18:25;;;;;;;10.48;6.95;;;5.40;99.90;;;;;;5007494;28;20421;-76
2022/03/04 10:20:51;;;;;;;14.15;7.72;;;5.50;99.90;;;;;;4992548;28;20145;-76
2022/03/04 10:23:19;;;;;;;16.42;6.68;;;5.40;99.90;;;;;;5011483;28;20176;-76
2022/03/04 10:25:48;;;;;;;10.35;6.05;;;5.20;99.90;;;;;;5011891;28;20115;-76
2022/03/04 10:28:15;;;;;;;5.25;3.67;;;5.10;99.90;;;;;;5010098;28;20053;-76
2022/03/04 10:30:46;;;;;;;15.27;8.48;;;5.00;99.90;;;;;;5026802;28;20053;-76
2022/03/04 10:33:15;;;;;;;14.15;7.13;;;5.00;99.90;;;;;;5027991;28;20049;-76
2022/03/04 10:35:42;;;;;;;14.05;7.00;;;4.90;99.90;;;;;;5012213;28;20049;-75
2022/03/04 10:38:19;;;;;;;10.63;3.60;;;4.90;99.90;;;;;;5027039;28;20095;-76
2022/03/04 10:40:44;;;;;;;13.85;6.65;;;4.90;99.90;;;;;;5028080;28;20046;-76
2022/03/04 10:43:11;;;;;;;10.80;5.70;;;5.00;99.90;;;;;;5011273;28;20048;-76
2022/03/04 10:45:43;;;;;;;13.32;5.40;;;5.00;99.90;;;;;;4999030;28;20451;-75
2022/03/04 10:48:19;;;;;;;12.60;5.72;;;5.00;99.90;;;;;;4992048;28;20083;-76
2022/03/04 10:50:53;;;;;;;10.65;6.30;;;5.10;99.90;;;;;;4990528;28;20045;-76
2022/03/04 10:53:23;;;;;;;4.25;2.45;;;5.20;99.90;;;;;;4991151;28;20042;-76
2022/03/04 10:55:56;;;;;;;13.63;6.95;;;5.40;99.90;;;;;;5025833;28;20074;-76
2022/03/04 10:58:27;;;;;;;7.95;5.05;;;5.60;99.90;;;;;;5017578;28;20049;-76
2022/03/04 11:01:00;;;;;;;6.95;5.50;;;5.60;99.90;;;;;;5012615;28;20129;-76
2022/03/04 11:03:28;;;;;;;10.60;5.75;;;5.70;99.90;;;;;;5007471;28;20045;-76
2022/03/04 11:05:55;;;;;;;14.55;7.20;;;5.70;99.90;;;;;;5017759;28;20527;-76
2022/03/04 11:08:22;;;;;;;6.82;3.78;;;5.80;99.90;;;;;;5028659;28;20053;-75
2022/03/04 11:10:52;;;;;;;14.52;7.45;;;5.80;99.90;;;;;;5028053;28;20106;-75
2022/03/04 11:13:19;;;;;;;5.82;3.75;;;5.90;99.90;;;;;;5009981;28;20091;-75
2022/03/04 11:16:01;;;;;;;6.88;3.65;;;6.00;99.90;;;;;;5010702;28;20068;-75
2022/03/04 11:18:27;;;;;;;14.32;7.40;;;6.20;99.90;;;;;;5010682;28;20111;-75
2022/03/04 11:20:55;;;;;;;13.25;6.10;;;6.40;99.90;;;;;;4990181;28;20554;-76
2022/03/04 11:23:29;;;;;;;13.25;7.78;;;6.40;99.90;;;;;;5007300;28;20050;-75
2022/03/04 11:25:59;;;;;;;4.45;3.20;;;6.40;99.90;;;;;;4992660;28;20041;-75
2022/03/04 11:28:49;;;;;;;12.23;7.80;;;6.30;99.90;;;;;;5020909;28;20505;-75
2022/03/04 11:31:20;;;;;;;12.07;6.72;;;6.50;99.90;;;;;;5021587;28;20591;-75
2022/03/04 11:34:00;;;;;;;7.75;5.22;;;6.60;99.90;;;;;;5012613;28;20033;-75
2022/03/04 11:36:32;;;;;;;11.00;6.43;;;6.70;99.90;;;;;;5005720;28;20092;-75
2022/03/04 11:39:12;;;;;;;11.30;6.78;;;6.80;99.90;;;;;;4992105;28;20041;-75
2022/03/04 11:41:59;;;;;;;7.93;4.63;;;6.90;99.90;;;;;;5001132;28;20096;-75
2022/03/04 11:44:26;;;;;;;13.95;7.13;;;7.00;99.90;;;;;;4996445;28;20048;-75
2022/03/04 11:47:00;;;;;;;14.65;7.32;;;7.00;99.90;;;;;;4997023;28;20037;-75
2022/03/04 11:49:38;;;;;;;16.25;7.20;;;7.10;99.90;;;;;;5000534;28;20052;-75
2022/03/04 11:52:10;;;;;;;6.70;4.03;;;7.10;99.90;;;;;;5008601;28;20045;-75
2022/03/04 11:54:38;;;;;;;9.80;5.70;;;7.10;99.90;;;;;;5017819;28;20652;-75
2022/03/04 11:57:21;;;;;;;10.85;5.60;;;7.20;99.90;;;;;;5000381;28;20047;-75
2022/03/04 12:00:12;;;;;;;14.73;5.68;;;7.40;99.90;;;;;;4987522;28;20038;-75
2022/03/04 12:02:38;;;;;;;7.53;4.72;;;7.50;99.90;;;;;;4991608;28;20056;-75
2022/03/04 12:05:13;;;;;;;15.80;6.43;;;7.70;99.90;;;;;;5001020;28;20045;-75
2022/03/04 12:07:41;;;;;;;11.82;6.43;;;7.80;99.90;;;;;;4997568;28;20041;-75
2022/03/04 12:10:11;;;;;;;6.43;5.07;;;7.90;99.90;;;;;;4989490;28;20076;-75
2022/03/04 12:12:38;;;;;;;10.13;5.28;;;8.00;99.90;;;;;;4989920;28;20741;-75
2022/03/04 12:15:16;;;;;;;2.58;2.03;;;8.00;99.90;;;;;;4990930;28;20212;-75
2022/03/04 12:17:59;;;;;;;12.15;6.93;;;8.10;99.90;;;;;;5010248;28;20064;-75
2022/03/04 12:20:58;;;;;;;4.90;3.78;;;8.20;99.90;;;;;;5009396;28;20572;-75
2022/03/04 12:23:33;;;;;;;5.65;3.80;;;8.40;99.90;;;;;;5008085;28;20227;-75
2022/03/04 12:25:58;;;;;;;10.13;5.63;;;8.40;99.90;;;;;;5008673;28;20128;-75
2022/03/04 12:28:27;;;;;;;7.95;5.10;;;8.30;99.90;;;;;;5008787;28;20472;-75
2022/03/04 12:31:05;;;;;;;20.73;8.35;;;8.30;99.90;;;;;;5008994;28;20367;-74
2022/03/04 12:33:31;;;;;;;11.18;5.57;;;8.40;99.90;;;;;;5004665;28;20081;-75
2022/03/04 12:35:58;;;;;;;11.82;6.80;;;8.30;99.90;;;;;;4992943;28;20061;-75
2022/03/04 12:38:25;;;;;;;9.48;5.85;;;8.30;99.90;;;;;;5004680;28;20049;-75
2022/03/04 12:40:58;;;;;;;5.28;3.83;;;8.30;99.90;;;;;;4996903;28;20354;-75
2022/03/04 12:43:27;;;;;;;8.00;3.90;;;8.30;99.90;;;;;;5013154;28;20410;-75
2022/03/04 12:45:53;;;;;;;7.63;4.68;;;8.40;99.90;;;;;;4992391;28;20098;-75
2022/03/04 12:48:26;;;;;;;7.80;5.40;;;8.40;99.90;;;;;;5007082;28;20725;-75
2022/03/04 12:50:51;;;;;;;11.63;6.70;;;8.40;99.90;;;;;;5004076;28;20041;-75
2022/03/04 12:53:31;;;;;;;11.88;6.28;;;8.40;98.60;;;;;;5016651;28;20045;-75
2022/03/04 12:56:03;;;;;;;7.53;4.90;;;8.30;98.90;;;;;;4980021;28;20045;-75
2022/03/04 12:58:53;;;;;;;6.80;4.20;;;8.20;99.90;;;;;;4978637;28;20033;-75
2022/03/04 13:01:44;;;;;;;7.53;4.72;;;8.30;99.80;;;;;;5019098;28;20526;-75
2022/03/04 13:04:20;;;;;;;6.68;4.88;;;8.30;99.70;;;;;;5009960;28;20414;-75
2022/03/04 13:07:22;;;;;;;10.98;6.38;;;8.40;99.30;;;;;;4979566;28;20040;-75
2022/03/04 13:09:58;;;;;;;14.75;7.07;;;8.40;99.60;;;;;;4993853;28;20048;-75
2022/03/04 13:12:36;;;;;;;11.23;6.07;;;8.40;98.90;;;;;;4989770;28;20033;-75